Time;durP1;ratioP1;P1;durP2;ratioP2;P2;SDS_P1;SDS_P2;PMS_P1;PMS_P2;Temp;Humidity;BMP_temperature;BMP_pressure;BME280_temperature;BME280_humidity;BME280_pressure;Samples;Min_cycle;Max_cycle;Signal;HPM_P1;HPM_P2
2023/03/12 00:01:52;;;;;;;3.00;1.77;;;;;;;-0.12;100.00;100925.47;6300621;28;20632;-75
2023/03/12 00:04:53;;;;;;;3.40;1.50;;;;;;;-0.11;100.00;100923.72;6302030;28;20051;-74
2023/03/12 00:07:58;;;;;;;2.80;1.40;;;;;;;-0.17;100.00;100927.22;6286417;28;20048;-74
2023/03/12 00:10:59;;;;;;;1.65;1.10;;;;;;;-0.12;100.00;100929.78;6277059;28;20392;-74
2023/03/12 00:14:01;;;;;;;1.10;1.00;;;;;;;-0.13;100.00;100923.75;6284808;28;20131;-74
2023/03/12 00:17:02;;;;;;;5.25;1.45;;;;;;;-0.15;100.00;100922.03;6293423;28;20048;-75
2023/03/12 00:20:05;;;;;;;2.65;1.42;;;;;;;-0.12;100.00;100920.28;6295064;28;20356;-75
2023/03/12 00:23:08;;;;;;;1.85;1.30;;;;;;;-0.17;100.00;100918.63;6301735;28;20122;-75
2023/03/12 00:26:11;;;;;;;1.90;0.95;;;;;;;-0.10;100.00;100912.53;6301220;28;20130;-75
2023/03/12 00:29:13;;;;;;;3.97;1.67;;;;;;;-0.16;100.00;100910.84;6283820;28;20049;-77
2023/03/12 00:32:14;;;;;;;1.50;1.10;;;;;;;-0.22;100.00;100913.47;6283185;28;20040;-77
2023/03/12 00:35:15;;;;;;;6.85;1.00;;;;;;;-0.10;100.00;100915.97;6300734;28;20051;-74
2023/03/12 00:38:18;;;;;;;2.15;1.15;;;;;;;-0.20;100.00;100916.91;6301176;28;20056;-75
2023/03/12 00:41:21;;;;;;;2.38;1.02;;;;;;;-0.28;100.00;100916.94;6301133;28;20056;-74
2023/03/12 00:44:22;;;;;;;1.80;0.80;;;;;;;-0.28;100.00;100910.91;6290289;28;20102;-74
2023/03/12 00:47:23;;;;;;;1.35;0.95;;;;;;;-0.28;100.00;100909.19;6287062;28;20052;-75
2023/03/12 00:50:25;;;;;;;2.00;1.38;;;;;;;-0.29;100.00;100906.63;6296598;28;20329;-77
2023/03/12 00:53:27;;;;;;;4.78;1.48;;;;;;;-0.27;100.00;100903.19;6295613;28;20036;-75
2023/03/12 00:56:29;;;;;;;1.98;1.25;;;;;;;-0.25;100.00;100900.56;6300824;28;20048;-77
2023/03/12 00:59:31;;;;;;;2.45;1.50;;;;;;;-0.22;100.00;100900.56;6300644;28;20044;-77
2023/03/12 01:02:32;;;;;;;4.05;1.67;;;;;;;-0.22;100.00;100895.41;6300948;28;20049;-77
2023/03/12 01:05:36;;;;;;;2.45;1.48;;;;;;;-0.30;100.00;100898.03;6300501;28;20053;-77
2023/03/12 01:08:39;;;;;;;4.35;1.50;;;;;;;-0.28;100.00;100896.28;6287427;28;20396;-77
2023/03/12 01:11:40;;;;;;;2.45;1.40;;;;;;;-0.26;100.00;100898.88;6275814;28;20060;-76
2023/03/12 01:14:42;;;;;;;4.97;1.50;;;;;;;-0.35;100.00;100891.19;6275541;28;20057;-77
2023/03/12 01:17:43;;;;;;;0.93;0.75;;;;;;;-0.27;100.00;100894.59;6297591;28;20072;-75
2023/03/12 01:20:45;;;;;;;1.75;0.98;;;;;;;-0.31;100.00;100890.31;6292922;28;20361;-77
2023/03/12 01:23:48;;;;;;;1.98;1.20;;;;;;;-0.31;100.00;100891.16;6275635;28;20444;-77
2023/03/12 01:26:49;;;;;;;4.25;1.77;;;;;;;-0.37;100.00;100893.75;6281401;28;20053;-75
2023/03/12 01:29:51;;;;;;;1.83;1.13;;;;;;;-0.43;100.00;100895.53;6300346;28;20056;-75
2023/03/12 01:32:52;;;;;;;6.07;2.92;;;;;;;-0.39;100.00;100890.34;6300088;28;20045;-77
2023/03/12 01:35:53;;;;;;;2.58;1.60;;;;;;;-0.35;100.00;100889.47;6300276;28;20056;-74
2023/03/12 01:38:58;;;;;;;3.15;1.45;;;;;;;-0.32;100.00;100883.41;6284556;28;20357;-75
2023/03/12 01:42:00;;;;;;;3.42;1.50;;;;;;;-0.32;100.00;100880.81;6291370;28;20056;-75
2023/03/12 01:45:05;;;;;;;1.60;0.85;;;;;;;-0.31;100.00;100878.25;6299987;28;20053;-75
2023/03/12 01:48:06;;;;;;;4.43;1.52;;;;;;;-0.32;100.00;100881.69;6299817;28;20185;-75
2023/03/12 01:51:10;;;;;;;5.13;1.75;;;;;;;-0.40;100.00;100878.31;6298246;28;20045;-75
2023/03/12 01:54:18;;;;;;;3.60;1.52;;;;;;;-0.42;100.00;100881.75;6298780;28;20045;-75
2023/03/12 01:57:23;;;;;;;3.80;1.67;;;;;;;-0.46;100.00;100886.06;6275033;28;20053;-75
2023/03/12 02:00:27;;;;;;;3.35;1.52;;;;;;;-0.51;100.00;100875.78;6274875;28;20061;-75
2023/03/12 02:03:29;;;;;;;9.02;2.15;;;;;;;-0.54;100.00;100882.69;6278260;28;20377;-74
2023/03/12 02:06:37;;;;;;;3.53;1.48;;;;;;;-0.58;100.00;100879.28;6295846;28;20457;-77
2023/03/12 02:09:43;;;;;;;2.08;1.73;;;;;;;-0.59;100.00;100885.31;6274776;28;20045;-75
2023/03/12 02:12:44;;;;;;;6.07;1.60;;;;;;;-0.64;100.00;100884.44;6274650;28;20041;-75
2023/03/12 02:15:46;;;;;;;4.00;1.88;;;;;;;-0.64;100.00;100879.28;6288806;28;20429;-75
2023/03/12 02:18:50;;;;;;;2.10;1.23;;;;;;;-0.60;100.00;100870.66;6291130;28;20089;-75
2023/03/12 02:21:51;;;;;;;1.48;1.13;;;;;;;-0.64;100.00;100876.69;6298151;28;20048;-75
2023/03/12 02:25:02;;;;;;;2.50;1.40;;;;;;;-0.63;100.00;100873.28;6299313;28;20494;-75
2023/03/12 02:28:11;;;;;;;2.53;1.42;;;;;;;-0.65;100.00;100876.72;6299554;28;20044;-75
2023/03/12 02:31:17;;;;;;;3.38;1.52;;;;;;;-0.66;100.00;100875.88;6292388;28;20048;-75
2023/03/12 02:34:19;;;;;;;2.63;1.25;;;;;;;-0.67;100.00;100875.88;6289166;28;20049;-75
2023/03/12 02:37:20;;;;;;;1.70;1.50;;;;;;;-0.69;100.00;100877.59;6293144;28;20049;-75
2023/03/12 02:40:27;;;;;;;3.17;1.48;;;;;;;-0.74;100.00;100869.88;6299469;28;20044;-75
2023/03/12 02:43:30;;;;;;;1.95;1.08;;;;;;;-0.79;100.00;100874.22;6299355;28;20436;-75
2023/03/12 02:46:34;;;;;;;2.83;1.42;;;;;;;-0.77;100.00;100875.09;6290840;28;20421;-75
2023/03/12 02:49:36;;;;;;;1.48;1.20;;;;;;;-0.80;100.00;100869.94;6299662;28;20040;-75
2023/03/12 02:52:38;;;;;;;4.20;1.50;;;;;;;-0.85;100.00;100867.38;6297035;28;20360;-75
2023/03/12 02:55:40;;;;;;;2.75;1.63;;;;;;;-0.87;100.00;100857.91;6299109;28;20055;-75
2023/03/12 02:58:43;;;;;;;3.25;1.70;;;;;;;-0.90;100.00;100863.94;6302846;28;20574;-74
2023/03/12 03:01:45;;;;;;;2.22;1.40;;;;;;;-0.91;100.00;100858.78;6303739;28;20052;-75
2023/03/12 03:04:46;;;;;;;2.55;1.65;;;;;;;-0.95;100.00;100865.69;6295111;28;20139;-75
2023/03/12 03:07:47;;;;;;;4.28;1.70;;;;;;;-0.95;100.00;100869.97;6303386;28;20581;-75
2023/03/12 03:10:50;;;;;;;3.13;1.80;;;;;;;-0.99;100.00;100868.31;6303301;28;20053;-75
2023/03/12 03:13:54;;;;;;;3.33;2.10;;;;;;;-1.08;100.00;100864.88;6303505;28;20041;-75
2023/03/12 03:16:55;;;;;;;3.40;1.73;;;;;;;-1.10;100.00;100865.75;6302914;28;20353;-75
2023/03/12 03:19:58;;;;;;;3.38;1.92;;;;;;;-1.12;100.00;100864.91;6294301;28;20044;-75
2023/03/12 03:22:59;;;;;;;8.55;2.03;;;;;;;-1.12;100.00;100863.19;6303230;28;20056;-75
2023/03/12 03:26:00;;;;;;;2.72;1.60;;;;;;;-1.07;100.00;100864.00;6302761;28;20052;-75
2023/03/12 03:29:03;;;;;;;1.70;1.20;;;;;;;-1.10;100.00;100855.44;6302994;28;20044;-76
2023/03/12 03:32:06;;;;;;;3.63;1.80;;;;;;;-1.13;100.00;100858.03;6288985;28;20186;-75
2023/03/12 03:35:08;;;;;;;2.55;1.38;;;;;;;-1.15;100.00;100859.75;6294226;28;20349;-75
2023/03/12 03:38:09;;;;;;;2.50;1.83;;;;;;;-1.18;100.00;100857.16;6302824;28;20052;-75
2023/03/12 03:41:10;;;;;;;2.25;1.40;;;;;;;-1.18;100.00;100852.00;6300991;28;20372;-76
2023/03/12 03:44:13;;;;;;;3.50;2.38;;;;;;;-1.23;100.00;100861.50;6293511;28;20053;-76
2023/03/12 03:47:15;;;;;;;8.68;1.92;;;;;;;-1.20;100.00;100864.91;6285953;28;20051;-76
2023/03/12 03:50:17;;;;;;;6.13;2.17;;;;;;;-1.16;100.00;100869.22;6277758;28;20040;-76
2023/03/12 03:53:19;;;;;;;4.35;2.00;;;;;;;-1.13;100.00;100868.34;6296026;28;20045;-75
2023/03/12 03:56:20;;;;;;;3.33;2.10;;;;;;;-1.09;100.00;100863.19;6299947;28;20070;-76
2023/03/12 03:59:23;;;;;;;4.10;2.22;;;;;;;-1.06;100.00;100875.19;6285243;28;20379;-76
2023/03/12 04:02:25;;;;;;;6.18;2.35;;;;;;;-1.03;100.00;100863.16;6302287;28;20063;-76
2023/03/12 04:05:27;;;;;;;11.55;2.70;;;;;;;-0.98;100.00;100865.69;6302202;28;20052;-76
2023/03/12 04:08:28;;;;;;;4.20;2.13;;;;;;;-0.95;100.00;100857.06;6289281;28;20041;-76
2023/03/12 04:11:30;;;;;;;1.63;1.10;;;;;;;-0.95;100.00;100863.13;6297208;28;20360;-76
2023/03/12 04:14:32;;;;;;;4.13;1.67;;;;;;;-0.96;100.00;100863.09;6289921;28;20048;-76
2023/03/12 04:17:34;;;;;;;3.80;1.88;;;;;;;-0.96;100.00;100861.38;6295204;28;20064;-76
2023/03/12 04:20:35;;;;;;;2.78;1.58;;;;;;;-0.97;100.00;100853.66;6301702;28;20127;-76
2023/03/12 04:23:37;;;;;;;7.13;2.25;;;;;;;-1.00;100.00;100856.25;6293596;28;20048;-77
2023/03/12 04:26:38;;;;;;;4.70;2.78;;;;;;;-0.99;100.00;100858.84;6288619;28;20056;-76
2023/03/12 04:29:41;;;;;;;4.95;2.10;;;;;;;-1.00;100.00;100859.69;6276669;28;20353;-76
2023/03/12 04:32:42;;;;;;;3.92;2.45;;;;;;;-0.97;100.00;100858.81;6267995;28;20056;-78
2023/03/12 04:35:50;;;;;;;5.75;2.42;;;;;;;-0.98;100.00;100859.69;6262949;28;20056;-76
2023/03/12 04:38:51;;;;;;;2.20;1.77;;;;;;;-0.94;100.00;100853.66;6284871;28;20048;-76
2023/03/12 04:41:53;;;;;;;12.05;2.90;;;;;;;-0.99;100.00;100850.25;6282969;28;20053;-76
2023/03/12 04:44:55;;;;;;;6.88;2.85;;;;;;;-1.03;100.00;100854.56;6283235;28;20060;-77
2023/03/12 04:47:57;;;;;;;5.13;2.47;;;;;;;-1.08;100.00;100845.97;6283847;28;20498;-76
2023/03/12 04:50:58;;;;;;;5.80;2.40;;;;;;;-1.07;100.00;100845.97;6284840;28;20594;-77
2023/03/12 04:54:00;;;;;;;5.60;2.25;;;;;;;-1.04;100.00;100842.53;6280709;28;20048;-76
2023/03/12 04:57:01;;;;;;;2.08;1.23;;;;;;;-1.03;100.00;100842.50;6281638;28;20083;-76
2023/03/12 05:00:09;;;;;;;4.80;2.38;;;;;;;-1.00;100.00;100827.88;6284063;28;20045;-76
2023/03/12 05:03:11;;;;;;;5.30;1.67;;;;;;;-0.97;100.00;100823.56;6273591;28;20072;-77
2023/03/12 05:06:12;;;;;;;2.80;1.58;;;;;;;-0.96;100.00;100821.84;6275440;28;20048;-76
2023/03/12 05:09:13;;;;;;;2.70;1.20;;;;;;;-0.94;100.00;100831.31;6280312;28;20048;-76
2023/03/12 05:12:15;;;;;;;2.90;1.70;;;;;;;-0.92;100.00;100832.13;6280503;28;20049;-76
2023/03/12 05:15:18;;;;;;;10.35;2.80;;;;;;;-0.92;100.00;100829.56;6282056;28;20665;-76
2023/03/12 05:18:20;;;;;;;4.70;2.25;;;;;;;-0.91;100.00;100833.00;6278744;28;20052;-76
2023/03/12 05:21:21;;;;;;;2.50;1.63;;;;;;;-0.91;100.00;100830.41;6254343;28;20037;-77
2023/03/12 05:24:23;;;;;;;2.38;1.58;;;;;;;-0.93;100.00;100822.69;6267918;28;20045;-76
2023/03/12 05:27:25;;;;;;;4.35;1.35;;;;;;;-0.93;100.00;100825.28;6290666;28;20469;-76
2023/03/12 05:30:27;;;;;;;5.05;2.40;;;;;;;-0.96;100.00;100814.97;6293918;28;20055;-76
2023/03/12 05:33:29;;;;;;;3.10;2.10;;;;;;;-0.97;100.00;100818.41;6298498;28;20432;-77
2023/03/12 05:36:30;;;;;;;17.45;2.15;;;;;;;-0.92;100.00;100814.06;6296570;28;20045;-77
2023/03/12 05:39:32;;;;;;;3.45;2.08;;;;;;;-0.90;100.00;100811.50;6300033;28;20353;-76
2023/03/12 05:42:33;;;;;;;10.77;2.88;;;;;;;-0.88;100.00;100805.47;6300032;28;20048;-77
2023/03/12 05:45:35;;;;;;;4.13;1.58;;;;;;;-0.84;100.00;100799.41;6300022;28;20452;-77
2023/03/12 05:48:37;;;;;;;4.57;1.67;;;;;;;-0.81;100.00;100794.25;6299820;28;20055;-77
2023/03/12 05:51:38;;;;;;;3.28;1.85;;;;;;;-0.78;100.00;100790.78;6300076;28;20463;-77
2023/03/12 05:54:39;;;;;;;2.78;1.27;;;;;;;-0.75;100.00;100784.75;6299738;28;20056;-77
2023/03/12 05:57:41;;;;;;;2.47;1.30;;;;;;;-0.77;100.00;100783.06;6295955;28;20072;-77
2023/03/12 06:00:44;;;;;;;2.72;1.70;;;;;;;-0.78;100.00;100781.31;6288514;28;20052;-77
2023/03/12 06:03:45;;;;;;;3.00;1.73;;;;;;;-0.74;100.00;100770.97;6299896;28;20048;-77
2023/03/12 06:06:47;;;;;;;3.20;1.80;;;;;;;-0.74;100.00;100770.97;6299621;28;20075;-76
2023/03/12 06:09:48;;;;;;;7.55;2.10;;;;;;;-0.74;100.00;100763.25;6293617;28;20079;-76
2023/03/12 06:12:50;;;;;;;3.58;1.77;;;;;;;-0.71;100.00;100758.06;6297731;28;20044;-76
2023/03/12 06:15:52;;;;;;;6.45;2.25;;;;;;;-0.66;100.00;100766.63;6278746;28;20076;-76
2023/03/12 06:18:54;;;;;;;2.65;2.08;;;;;;;-0.71;100.00;100771.81;6274543;28;20052;-76
2023/03/12 06:21:56;;;;;;;7.25;2.15;;;;;;;-0.72;100.00;100764.09;6274843;28;20060;-76
2023/03/12 06:24:57;;;;;;;4.88;1.80;;;;;;;-0.69;100.00;100754.59;6294999;28;20048;-76
2023/03/12 06:27:58;;;;;;;4.32;2.20;;;;;;;-0.67;100.00;100755.47;6299303;28;20337;-76
2023/03/12 06:31:02;;;;;;;8.35;2.22;;;;;;;-0.64;100.00;100747.66;6299650;28;20051;-76
2023/03/12 06:34:03;;;;;;;4.40;1.75;;;;;;;-0.58;100.00;100751.97;6287830;28;20069;-76
2023/03/12 06:37:05;;;;;;;8.80;1.85;;;;;;;-0.54;100.00;100749.34;6279217;28;20057;-76
2023/03/12 06:40:09;;;;;;;2.38;1.70;;;;;;;-0.51;100.00;100746.72;6279369;28;20056;-77
2023/03/12 06:43:11;;;;;;;3.63;1.55;;;;;;;-0.46;100.00;100754.41;6279177;28;20183;-76
2023/03/12 06:46:16;;;;;;;5.25;2.55;;;;;;;-0.43;100.00;100743.22;6285952;28;20049;-77
2023/03/12 06:49:17;;;;;;;2.88;1.90;;;;;;;-0.49;100.00;100745.88;6288931;28;20102;-76
2023/03/12 06:52:19;;;;;;;3.10;1.15;;;;;;;-0.41;100.00;100737.19;6288629;28;20048;-76
2023/03/12 06:55:20;;;;;;;2.88;1.40;;;;;;;-0.36;100.00;100738.00;6288165;28;20037;-76
2023/03/12 06:58:21;;;;;;;3.13;2.03;;;;;;;-0.35;100.00;100733.69;6290436;28;20357;-76
2023/03/12 07:01:24;;;;;;;4.65;1.70;;;;;;;-0.30;100.00;100737.09;6288249;28;20056;-76
2023/03/12 07:04:25;;;;;;;2.85;1.40;;;;;;;-0.22;100.00;100743.03;6288237;28;20495;-76
2023/03/12 07:07:27;;;;;;;2.13;1.77;;;;;;;-0.16;100.00;100745.56;6290118;28;20041;-76
2023/03/12 07:10:28;;;;;;;3.42;1.30;;;;;;;-0.07;100.00;100739.44;6288178;28;20052;-75
2023/03/12 07:13:30;;;;;;;5.45;1.65;;;;;;;0.01;100.00;100737.66;6285378;28;20102;-76
2023/03/12 07:16:33;;;;;;;4.50;2.15;;;;;;;0.11;100.00;100741.00;6288567;28;20045;-76
2023/03/12 07:19:35;;;;;;;3.55;2.22;;;;;;;0.13;100.00;100739.22;6287968;28;20048;-76
2023/03/12 07:22:36;;;;;;;3.17;1.80;;;;;;;0.23;100.00;100746.88;6288595;28;20057;-76
2023/03/12 07:25:38;;;;;;;2.63;1.73;;;;;;;0.31;100.00;100741.63;6299145;28;20052;-75
2023/03/12 07:28:40;;;;;;;3.85;1.48;;;;;;;0.38;100.00;100734.66;6302892;28;20048;-75
2023/03/12 07:31:43;;;;;;;1.85;1.67;;;;;;;0.39;100.00;100742.38;6303008;28;20429;-75
2023/03/12 07:34:44;;;;;;;5.45;2.08;;;;;;;0.41;100.00;100737.19;6302726;28;20048;-75
2023/03/12 07:37:45;;;;;;;2.60;1.73;;;;;;;0.42;100.00;100728.59;6302987;28;20055;-75
2023/03/12 07:40:50;;;;;;;3.17;1.30;;;;;;;0.43;100.00;100720.81;6295222;28;20436;-76
2023/03/12 07:43:52;;;;;;;3.40;2.03;;;;;;;0.52;100.00;100713.81;6302911;28;20036;-75
2023/03/12 07:46:54;;;;;;;2.05;1.48;;;;;;;0.55;100.00;100706.88;6287705;28;20076;-75
2023/03/12 07:49:56;;;;;;;5.05;2.10;;;;;;;0.57;100.00;100701.69;6277665;28;20373;-75
2023/03/12 07:52:57;;;;;;;2.67;1.67;;;;;;;0.61;100.00;100699.03;6301515;28;20084;-75
2023/03/12 07:55:58;;;;;;;3.85;1.73;;;;;;;0.73;100.00;100698.88;6302082;28;20459;-75
2023/03/12 07:59:00;;;;;;;3.60;1.75;;;;;;;0.78;100.00;100701.41;6302461;28;20048;-75
2023/03/12 08:02:02;;;;;;;1.33;1.10;;;;;;;0.84;100.00;100690.94;6302295;28;20130;-74
2023/03/12 08:05:04;;;;;;;3.35;1.15;;;;;;;0.93;100.00;100690.81;6300647;28;20041;-74
2023/03/12 08:08:06;;;;;;;2.15;1.52;;;;;;;0.98;100.00;100694.19;6289425;28;20051;-75
2023/03/12 08:11:09;;;;;;;2.67;1.50;;;;;;;0.94;100.00;100689.94;6281491;28;20053;-74
2023/03/12 08:14:11;;;;;;;1.75;1.50;;;;;;;1.00;100.00;100692.44;6285373;28;20068;-74
2023/03/12 08:17:13;;;;;;;1.33;1.10;;;;;;;1.01;100.00;100694.16;6277873;28;20052;-74
2023/03/12 08:20:15;;;;;;;6.57;1.92;;;;;;;1.04;100.00;100693.22;6284065;28;20045;-74
2023/03/12 08:23:16;;;;;;;1.52;1.02;;;;;;;1.09;100.00;100696.63;6277011;28;20496;-74
2023/03/12 08:26:17;;;;;;;4.28;1.50;;;;;;;1.07;100.00;100708.72;6278230;28;20049;-74
2023/03/12 08:29:19;;;;;;;4.38;1.35;;;;;;;1.13;100.00;100710.34;6301679;28;20454;-74
2023/03/12 08:32:21;;;;;;;2.67;1.27;;;;;;;1.19;100.00;100705.97;6299995;28;20053;-74
2023/03/12 08:35:23;;;;;;;3.30;1.77;;;;;;;1.22;100.00;100718.84;6301150;28;20052;-74
2023/03/12 08:38:24;;;;;;;3.88;1.80;;;;;;;1.30;100.00;100715.28;6300294;28;20045;-73
2023/03/12 08:41:26;;;;;;;1.40;1.30;;;;;;;1.26;100.00;100717.06;6284654;28;21524;-73
2023/03/12 08:44:27;;;;;;;8.82;1.80;;;;;;;1.27;100.00;100709.28;6287743;28;20049;-73
2023/03/12 08:47:30;;;;;;;3.42;1.25;;;;;;;1.27;100.00;100714.47;6301010;28;20056;-74
2023/03/12 08:50:32;;;;;;;2.65;1.65;;;;;;;1.37;100.00;100704.81;6301228;28;20441;-74
2023/03/12 08:53:34;;;;;;;4.22;1.48;;;;;;;1.39;100.00;100712.53;6283391;28;20049;-73
2023/03/12 08:56:40;;;;;;;2.08;1.55;;;;;;;1.38;100.00;100708.25;6293571;28;20048;-74
2023/03/12 08:59:41;;;;;;;1.48;1.33;;;;;;;1.42;100.00;100705.59;6300830;28;20056;-74
2023/03/12 09:02:45;;;;;;;2.00;1.27;;;;;;;1.50;100.00;100701.13;6293943;28;20048;-74
2023/03/12 09:05:46;;;;;;;4.28;1.55;;;;;;;1.58;100.00;100695.81;6300694;28;20049;-73
2023/03/12 09:08:48;;;;;;;3.03;1.45;;;;;;;1.65;100.00;100688.81;6300234;28;20364;-74
2023/03/12 09:11:49;;;;;;;4.13;1.83;;;;;;;1.64;100.00;100693.13;6298125;28;20492;-74
2023/03/12 09:14:51;;;;;;;1.50;1.20;;;;;;;1.77;100.00;100698.94;6284410;28;20049;-74
2023/03/12 09:17:54;;;;;;;9.05;1.58;;;;;;;1.74;100.00;100701.59;6280668;28;20464;-74
2023/03/12 09:20:57;;;;;;;2.45;1.52;;;;;;;1.77;100.00;100707.59;6290530;28;20048;-74
2023/03/12 09:23:58;;;;;;;4.45;1.50;;;;;;;1.86;100.00;100693.56;6292687;28;20049;-73
2023/03/12 09:26:59;;;;;;;2.83;1.58;;;;;;;1.96;100.00;100678.75;6298717;28;20338;-74
2023/03/12 09:30:00;;;;;;;2.70;1.77;;;;;;;2.05;100.00;100675.97;6299446;28;20044;-74
2023/03/12 09:33:03;;;;;;;2.85;1.60;;;;;;;2.12;100.00;100666.31;6275879;28;20362;-74
2023/03/12 09:36:06;;;;;;;3.88;1.40;;;;;;;2.22;100.00;100662.66;6274963;28;20045;-74
2023/03/12 09:39:07;;;;;;;1.23;1.13;;;;;;;2.29;100.00;100654.72;6291924;28;20082;-74
2023/03/12 09:42:15;;;;;;;2.75;1.73;;;;;;;2.41;100.00;100642.41;6299975;28;20349;-74
2023/03/12 09:45:20;;;;;;;3.13;1.67;;;;;;;2.43;100.00;100633.69;6299879;28;20379;-74
2023/03/12 09:48:32;;;;;;;5.18;1.38;;;;;;;2.53;100.00;100623.97;6298114;28;20357;-74
2023/03/12 09:51:38;;;;;;;2.38;1.35;;;;;;;2.55;100.00;100614.41;6288051;28;20132;-74
2023/03/12 09:54:44;;;;;;;2.63;1.40;;;;;;;2.58;100.00;100603.94;6274887;28;20052;-74
2023/03/12 09:57:46;;;;;;;1.75;1.20;;;;;;;2.65;100.00;100604.69;6275126;28;20052;-74
2023/03/12 10:00:48;;;;;;;3.00;1.38;;;;;;;2.69;100.00;100598.53;6297137;28;20459;-74
2023/03/12 10:04:07;;;;;;;3.53;1.73;;;;;;;2.77;100.00;100597.47;6276417;28;20041;-74
2023/03/12 10:07:15;;;;;;;2.17;1.15;;;;;;;2.75;100.00;100588.84;6276428;28;20075;-74
2023/03/12 10:10:28;;;;;;;2.97;1.30;;;;;;;2.81;100.00;100580.06;6280160;28;20056;-73
2023/03/12 10:13:44;;;;;;;2.47;1.05;;;;;;;2.88;100.00;100575.59;6286542;28;20060;-73
2023/03/12 10:16:56;;;;;;;2.40;1.20;;;;;;;2.90;100.00;100556.47;6282514;28;20056;-74
2023/03/12 10:20:19;;;;;;;4.78;1.98;;;;;;;2.93;100.00;100547.78;6287091;28;20052;-74
2023/03/12 10:23:34;;;;;;;2.28;1.10;;;;;;;2.98;100.00;100540.72;6297531;28;20466;-74
2023/03/12 10:26:39;;;;;;;1.13;1.05;;;;;;;3.16;100.00;100544.59;6281294;28;20064;-74
2023/03/12 10:29:43;;;;;;;3.13;0.88;;;;;;;3.31;100.00;100542.44;6281999;28;20437;-74
2023/03/12 10:32:49;;;;;;;6.13;1.30;;;;;;;3.36;100.00;100539.75;6288417;28;20045;-75
2023/03/12 10:35:52;;;;;;;2.47;1.17;;;;;;;3.46;100.00;100545.53;6288645;28;20048;-74
2023/03/12 10:38:53;;;;;;;12.43;1.75;;;;;;;3.67;100.00;100546.66;6289882;28;20049;-75
2023/03/12 10:41:56;;;;;;;7.00;2.30;;;;;;;3.81;100.00;100550.59;6290671;28;20051;-75
2023/03/12 10:45:00;;;;;;;2.72;1.23;;;;;;;3.87;100.00;100543.50;6287751;28;20353;-75
2023/03/12 10:48:03;;;;;;;4.15;1.40;;;;;;;3.95;100.00;100551.91;6288496;28;20048;-75
2023/03/12 10:51:08;;;;;;;5.90;1.73;;;;;;;4.02;100.00;100549.09;6288480;28;20472;-77
2023/03/12 10:54:21;;;;;;;4.45;1.42;;;;;;;3.97;100.00;100537.13;6291767;28;20040;-76
2023/03/12 10:57:39;;;;;;;8.13;1.58;;;;;;;3.97;100.00;100540.59;6290131;28;20040;-74
2023/03/12 11:00:40;;;;;;;1.98;1.13;;;;;;;4.00;100.00;100544.88;6281352;28;20090;-73
2023/03/12 11:03:43;;;;;;;6.13;1.27;;;;;;;4.02;100.00;100535.25;6285428;28;20058;-74
2023/03/12 11:07:07;;;;;;;1.58;1.05;;;;;;;3.93;100.00;100527.72;6287637;28;20048;-76
2023/03/12 11:10:21;;;;;;;1.88;1.08;;;;;;;3.86;100.00;100513.19;6284980;28;20044;-75
2023/03/12 11:13:31;;;;;;;2.15;1.23;;;;;;;3.86;100.00;100513.19;6284449;28;20393;-76
2023/03/12 11:16:32;;;;;;;3.88;1.13;;;;;;;3.74;100.00;100514.41;6286871;28;20051;-74
2023/03/12 11:19:34;;;;;;;2.70;1.55;;;;;;;3.52;100.00;100516.78;6284287;28;20072;-75
2023/03/12 11:22:37;;;;;;;1.95;1.27;;;;;;;3.56;100.00;100498.47;6289397;28;20523;-75
2023/03/12 11:25:39;;;;;;;3.97;1.40;;;;;;;3.59;100.00;100505.31;6289470;28;20048;-75
2023/03/12 11:28:44;;;;;;;1.23;1.13;;;;;;;3.50;100.00;100496.03;6288792;28;20044;-75
2023/03/12 11:31:57;;;;;;;6.72;1.55;;;;;;;3.44;100.00;100496.19;6284513;28;20358;-75
2023/03/12 11:34:58;;;;;;;1.38;1.20;;;;;;;3.41;100.00;100500.66;6285939;28;20048;-75
2023/03/12 11:38:09;;;;;;;4.10;1.45;;;;;;;3.20;100.00;100496.88;6286284;28;20040;-75
2023/03/12 11:41:25;;;;;;;4.00;1.20;;;;;;;3.17;100.00;100497.81;6288321;28;20464;-76
2023/03/12 11:44:32;;;;;;;2.35;1.45;;;;;;;3.14;100.00;100497.91;6302632;28;20052;-76
2023/03/12 11:47:47;;;;;;;3.50;1.75;;;;;;;3.02;100.00;100503.41;6286180;28;20044;-74
2023/03/12 11:51:01;;;;;;;4.00;1.95;;;;;;;2.97;100.00;100503.53;6286049;28;20045;-74
2023/03/12 11:54:19;;;;;;;5.63;1.45;;;;;;;2.91;100.00;100489.88;6302633;28;20052;-74
2023/03/12 11:57:30;;;;;;;2.88;1.50;;;;;;;2.94;100.00;100475.06;6295505;28;20067;-74
2023/03/12 12:00:39;;;;;;;6.30;2.63;;;;;;;2.94;100.00;100466.41;6291208;28;20045;-74
2023/03/12 12:04:03;;;;;;;4.57;1.77;;;;;;;2.87;100.00;100470.94;6284343;28;20049;-74
2023/03/12 12:07:13;;;;;;;4.57;2.33;;;;;;;2.80;100.00;100466.78;6286632;28;20043;-74
2023/03/12 12:10:27;;;;;;;3.70;1.88;;;;;;;2.76;100.00;100466.00;6286730;28;20099;-74
2023/03/12 12:13:35;;;;;;;2.30;1.73;;;;;;;2.70;100.00;100465.31;6290052;28;20056;-74
2023/03/12 12:16:55;;;;;;;4.78;2.22;;;;;;;2.69;100.00;100451.50;6290008;28;20049;-74
2023/03/12 12:20:12;;;;;;;2.90;1.60;;;;;;;2.67;100.00;100448.09;6289558;28;20070;-74
2023/03/12 12:23:23;;;;;;;2.92;1.70;;;;;;;2.70;100.00;100437.63;6286384;28;20352;-74
2023/03/12 12:26:35;;;;;;;5.25;1.52;;;;;;;2.66;100.00;100424.78;6289476;28;20076;-74
2023/03/12 12:30:01;;;;;;;2.10;1.88;;;;;;;2.60;100.00;100418.03;6289436;28;20471;-74
2023/03/12 12:33:17;;;;;;;4.07;2.13;;;;;;;2.58;100.00;100409.41;6301773;28;20460;-74
2023/03/12 12:36:18;;;;;;;3.47;2.13;;;;;;;2.54;100.00;100407.78;6294533;28;20044;-73
2023/03/12 12:39:29;;;;;;;2.85;1.65;;;;;;;2.46;100.00;100410.59;6301323;28;20048;-74
2023/03/12 12:42:36;;;;;;;2.83;1.70;;;;;;;2.50;100.00;100409.63;6298304;28;20049;-74
2023/03/12 12:45:40;;;;;;;4.28;2.47;;;;;;;2.49;100.00;100401.88;6279040;28;20056;-74
2023/03/12 12:48:44;;;;;;;3.80;1.95;;;;;;;2.52;100.00;100400.06;6300996;28;20321;-73
2023/03/12 12:51:49;;;;;;;3.35;2.05;;;;;;;2.50;100.00;100388.03;6292312;28;20052;-74
2023/03/12 12:54:58;;;;;;;5.57;2.50;;;;;;;2.53;100.00;100387.94;6284635;28;20051;-74
2023/03/12 12:58:04;;;;;;;3.75;2.42;;;;;;;2.52;100.00;100376.72;6285510;28;20044;-74
2023/03/12 13:01:08;;;;;;;2.20;2.00;;;;;;;2.55;100.00;100368.00;6292323;28;20052;-73
2023/03/12 13:04:16;;;;;;;2.97;2.47;;;;;;;2.56;100.00;100364.53;6297240;28;20052;-73
2023/03/12 13:07:33;;;;;;;4.27;2.50;;;;;;;2.52;100.00;100368.94;6285706;28;20052;-74
2023/03/12 13:10:43;;;;;;;7.78;2.50;;;;;;;2.48;100.00;100362.13;6296784;28;20051;-73
2023/03/12 13:13:49;;;;;;;2.97;2.10;;;;;;;2.52;100.00;100365.50;6300051;28;20036;-74
2023/03/12 13:17:08;;;;;;;5.07;2.60;;;;;;;2.51;100.00;100361.19;6300157;28;20375;-74
2023/03/12 13:20:16;;;;;;;4.38;3.05;;;;;;;2.52;100.00;100365.50;6292088;28;20052;-74
2023/03/12 13:23:35;;;;;;;3.27;2.73;;;;;;;2.47;100.00;100360.41;6293913;28;20051;-74
2023/03/12 13:26:51;;;;;;;4.25;2.60;;;;;;;2.55;100.00;100352.44;6300147;28;20063;-73
2023/03/12 13:29:56;;;;;;;3.90;2.55;;;;;;;2.61;100.00;100352.28;6289291;28;20380;-74
2023/03/12 13:33:12;;;;;;;3.75;2.65;;;;;;;2.65;100.00;100333.13;6290854;28;20049;-74
2023/03/12 13:36:27;;;;;;;4.57;2.88;;;;;;;2.62;100.00;100330.63;6287347;28;20043;-74
2023/03/12 13:39:31;;;;;;;3.65;2.70;;;;;;;2.73;100.00;100326.00;6284270;28;20052;-74
2023/03/12 13:42:40;;;;;;;5.95;3.47;;;;;;;2.76;100.00;100322.44;6283861;28;20445;-74
2023/03/12 13:45:59;;;;;;;4.05;3.25;;;;;;;2.73;100.00;100323.41;6289255;28;20037;-74
2023/03/12 13:49:05;;;;;;;5.70;2.83;;;;;;;2.75;100.00;100321.59;6294327;28;20049;-74
2023/03/12 13:52:25;;;;;;;4.03;3.20;;;;;;;2.80;100.00;100331.84;6283416;28;20046;-74
2023/03/12 13:55:28;;;;;;;9.68;3.25;;;;;;;2.80;100.00;100337.88;6288395;28;20482;-73
2023/03/12 13:58:31;;;;;;;12.02;3.67;;;;;;;2.85;100.00;100327.38;6299805;28;20067;-74
2023/03/12 14:01:37;;;;;;;7.45;3.67;;;;;;;2.92;100.00;100322.88;6286340;28;20048;-73
2023/03/12 14:04:40;;;;;;;5.45;3.35;;;;;;;2.92;100.00;100318.53;6279608;28;20349;-74
2023/03/12 14:08:01;;;;;;;4.43;2.90;;;;;;;2.94;100.00;100327.13;6285260;28;20044;-73
2023/03/12 14:11:27;;;;;;;5.72;2.85;;;;;;;2.95;100.00;100304.59;6275688;28;20056;-73
2023/03/12 14:14:53;;;;;;;5.03;3.25;;;;;;;3.02;100.00;100290.56;6274898;28;20049;-74